Time;durP1;ratioP1;P1;durP2;ratioP2;P2;SDS_P1;SDS_P2;PMS_P1;PMS_P2;Temp;Humidity;BMP_temperature;BMP_pressure;BME280_temperature;BME280_humidity;BME280_pressure;Samples;Min_cycle;Max_cycle;Signal;HPM_P1;HPM_P2
2021/03/18 00:02:08;;;;;;;20.10;13.18;;;;;;;1.54;61.61;100761.87;123380;1105;104326;-82
2021/03/18 00:04:49;;;;;;;14.00;12.17;;;;;;;1.48;61.78;100753.03;122959;1109;104339;-82
2021/03/18 00:07:16;;;;;;;13.78;10.53;;;;;;;1.45;62.03;100755.61;123088;1108;104341;-82
2021/03/18 00:09:57;;;;;;;14.47;12.23;;;;;;;1.46;62.23;100753.86;123080;1109;105171;-82
2021/03/18 00:12:39;;;;;;;13.00;9.93;;;;;;;1.50;62.17;100746.05;122791;1109;104398;-82
2021/03/18 00:15:09;;;;;;;14.60;11.80;;;;;;;1.48;61.96;100755.66;122925;1109;104280;-85
2021/03/18 00:17:36;;;;;;;20.20;13.00;;;;;;;1.42;62.65;100754.67;123151;1109;105051;-83
2021/03/18 00:20:09;;;;;;;14.30;11.63;;;;;;;1.46;62.76;100761.73;123173;1108;104277;-81
2021/03/18 00:22:39;;;;;;;14.70;10.50;;;;;;;1.40;62.95;100756.37;123208;1109;104473;-82
2021/03/18 00:25:12;;;;;;;18.33;11.00;;;;;;;1.38;62.50;100756.34;123250;1109;104335;-82
2021/03/18 00:27:40;;;;;;;13.50;12.10;;;;;;;1.36;62.55;100749.30;123127;1109;104333;-80
2021/03/18 00:30:09;;;;;;;17.20;11.83;;;;;;;1.35;63.06;100748.44;123155;1106;104361;-83
2021/03/18 00:32:37;;;;;;;15.33;11.97;;;;;;;1.28;62.89;100749.17;123235;1109;104548;-80
2021/03/18 00:35:06;;;;;;;15.17;11.57;;;;;;;1.21;62.69;100737.69;123108;1109;104642;-83
2021/03/18 00:37:34;;;;;;;17.07;12.03;;;;;;;1.24;62.65;100747.35;123172;1109;104425;-81
2021/03/18 00:40:23;;;;;;;12.30;10.73;;;;;;;1.16;63.23;100737.63;123114;1109;104790;-81
2021/03/18 00:43:02;;;;;;;12.90;11.50;;;;;;;1.20;63.05;100738.56;123245;1105;104211;-83
2021/03/18 00:45:32;;;;;;;16.73;11.00;;;;;;;1.23;63.70;100738.61;123473;1105;104980;-81
2021/03/18 00:47:59;;;;;;;12.73;11.55;;;;;;;1.17;62.92;100743.73;123572;1105;104153;-82
2021/03/18 00:50:31;;;;;;;13.83;10.20;;;;;;;1.07;62.44;100733.97;123195;1105;104147;-81
2021/03/18 00:52:58;;;;;;;12.75;10.40;;;;;;;1.07;63.75;100732.21;122970;1105;104297;-88
2021/03/18 00:55:26;;;;;;;19.62;13.10;;;;;;;1.07;62.83;100732.21;123534;1105;104328;-83
2021/03/18 00:57:53;;;;;;;13.30;11.73;;;;;;;1.00;63.43;100743.46;123444;1106;104370;-81
2021/03/18 01:00:23;;;;;;;12.00;10.00;;;;;;;0.98;63.79;100726.80;123461;1105;104303;-84
2021/03/18 01:02:52;;;;;;;14.67;11.87;;;;;;;0.88;64.00;100735.34;123392;1105;104277;-83
2021/03/18 01:05:38;;;;;;;14.47;12.17;;;;;;;0.83;64.39;100727.41;123420;1106;104986;-81
2021/03/18 01:08:07;;;;;;;13.35;9.45;;;;;;;0.83;63.80;100727.41;123491;1106;104395;-83
2021/03/18 01:10:39;;;;;;;14.47;11.05;;;;;;;0.89;63.37;100726.62;123388;1105;104189;-82
2021/03/18 01:13:06;;;;;;;15.20;10.78;;;;;;;0.78;64.03;100724.68;123336;1105;104274;-83
2021/03/18 01:15:34;;;;;;;16.42;10.18;;;;;;;0.77;64.07;100722.94;123463;1105;104370;-81
2021/03/18 01:18:01;;;;;;;14.70;10.67;;;;;;;0.76;64.37;100728.13;123555;1105;104315;-82
2021/03/18 01:20:28;;;;;;;16.40;10.13;;;;;;;0.76;63.98;100728.13;123479;1105;104510;-82
2021/03/18 01:22:56;;;;;;;12.45;9.93;;;;;;;0.77;64.66;100728.19;123570;1105;104341;-81
2021/03/18 01:25:22;;;;;;;13.73;9.80;;;;;;;0.69;64.52;100715.77;123533;1105;104335;-81
2021/03/18 01:27:49;;;;;;;13.93;9.37;;;;;;;0.71;64.89;100724.53;123556;1105;104800;-82
2021/03/18 01:30:20;;;;;;;12.30;10.05;;;;;;;0.66;64.28;100727.08;123411;1105;104604;-81
2021/03/18 01:32:47;;;;;;;11.90;9.33;;;;;;;0.69;64.48;100715.77;123288;1106;104254;-84
2021/03/18 01:35:19;;;;;;;12.23;10.20;;;;;;;0.63;64.40;100717.41;123399;1105;104216;-81
2021/03/18 01:37:47;;;;;;;11.87;10.60;;;;;;;0.62;64.90;100717.39;123159;1105;104293;-81
2021/03/18 01:40:30;;;;;;;12.50;9.85;;;;;;;0.60;65.12;100726.95;123289;1105;104714;-81
2021/03/18 01:42:57;;;;;;;10.88;9.18;;;;;;;0.59;64.97;100725.20;123544;1105;104983;-82
2021/03/18 01:45:24;;;;;;;17.95;10.30;;;;;;;0.59;64.93;100720.84;123395;1105;104412;-81
2021/03/18 01:47:53;;;;;;;11.97;9.57;;;;;;;0.53;65.08;100715.46;123384;1105;105184;-81
2021/03/18 01:50:22;;;;;;;17.37;11.57;;;;;;;0.58;65.75;100718.19;123582;1105;104342;-81
2021/03/18 01:53:04;;;;;;;11.75;9.45;;;;;;;0.58;65.33;100723.43;123428;1106;104226;-81
2021/03/18 01:55:38;;;;;;;10.83;9.83;;;;;;;0.61;65.33;100720.86;123529;1105;104632;-82
2021/03/18 01:58:19;;;;;;;10.30;9.10;;;;;;;0.56;65.50;100714.64;123211;1109;104431;-83
2021/03/18 02:00:50;;;;;;;13.20;9.77;;;;;;;0.58;65.23;100718.19;123405;1106;104345;-80
2021/03/18 02:03:17;;;;;;;11.73;9.98;;;;;;;0.59;65.65;100718.22;123525;1105;104278;-81
2021/03/18 02:05:47;;;;;;;10.33;8.70;;;;;;;0.60;65.62;100719.09;123553;1105;104258;-82
2021/03/18 02:08:14;;;;;;;13.03;10.43;;;;;;;0.61;65.44;100721.77;123611;1105;104300;-81
2021/03/18 02:10:41;;;;;;;10.43;9.00;;;;;;;0.60;65.60;100717.37;123545;1105;104236;-81
2021/03/18 02:13:24;;;;;;;12.77;9.63;;;;;;;0.62;65.46;100723.50;123175;1109;104230;-81
2021/03/18 02:15:56;;;;;;;16.07;8.60;;;;;;;0.57;65.65;100716.42;123352;1109;105002;-81
2021/03/18 02:18:42;;;;;;;14.03;11.07;;;;;;;0.57;65.83;100719.91;123452;1109;104213;-81
2021/03/18 02:21:51;;;;;;;13.37;9.70;;;;;;;0.56;65.50;100725.13;123280;1109;104386;-81
2021/03/18 02:24:35;;;;;;;11.80;9.87;;;;;;;0.56;66.01;100714.64;123270;1109;104242;-82
2021/03/18 02:27:14;;;;;;;10.80;8.90;;;;;;;0.62;65.89;100715.64;123222;1109;104261;-82
2021/03/18 02:30:11;;;;;;;17.60;8.80;;;;;;;0.64;66.03;100723.53;123291;1108;105117;-81
2021/03/18 02:33:02;;;;;;;16.30;10.70;;;;;;;0.68;65.55;100714.90;123303;1109;104223;-81
2021/03/18 02:35:41;;;;;;;13.20;8.75;;;;;;;0.73;65.69;100722.84;123172;1109;104357;-81
2021/03/18 02:38:22;;;;;;;10.65;8.38;;;;;;;0.74;65.94;100716.75;123298;1108;104392;-84
2021/03/18 02:40:57;;;;;;;14.43;11.00;;;;;;;0.75;65.65;100710.66;123267;1109;104293;-81
2021/03/18 02:43:25;;;;;;;13.30;9.63;;;;;;;0.74;65.76;100717.62;123219;1109;104300;-82
2021/03/18 02:45:57;;;;;;;9.87;8.87;;;;;;;0.78;65.60;100711.58;123230;1108;104336;-84
2021/03/18 02:48:28;;;;;;;10.50;9.45;;;;;;;0.75;65.13;100708.91;123186;1109;105100;-88
2021/03/18 02:51:16;;;;;;;9.93;8.95;;;;;;;0.71;65.45;100704.46;122958;1109;104406;-82
2021/03/18 02:53:45;;;;;;;12.95;8.43;;;;;;;0.66;65.98;100700.87;123052;1109;104367;-81
2021/03/18 02:56:16;;;;;;;13.38;11.00;;;;;;;0.56;65.46;100705.06;123079;1109;104500;-80
2021/03/18 02:58:45;;;;;;;14.33;9.93;;;;;;;0.56;65.64;100709.40;123299;1109;104983;-80
2021/03/18 03:01:26;;;;;;;12.80;9.20;;;;;;;0.66;65.25;100709.60;122995;1109;105198;-80
2021/03/18 03:03:55;;;;;;;12.28;9.08;;;;;;;0.70;65.86;100707.93;123214;1109;104242;-80
2021/03/18 03:06:22;;;;;;;12.43;9.80;;;;;;;0.70;65.79;100709.69;123217;1109;104396;-80
2021/03/18 03:08:49;;;;;;;13.32;10.70;;;;;;;0.68;66.11;100714.90;123086;1109;104367;-79
2021/03/18 03:11:23;;;;;;;9.90;8.75;;;;;;;0.64;65.81;100719.19;123126;1109;104411;-78
2021/03/18 03:13:51;;;;;;;13.50;11.08;;;;;;;0.63;65.98;100714.80;123159;1108;104425;-80
2021/03/18 03:16:21;;;;;;;18.70;13.75;;;;;;;0.61;67.21;100724.39;123170;1108;104846;-83
2021/03/18 03:18:48;;;;;;;12.45;10.40;;;;;;;0.56;66.97;100730.36;123231;1109;104286;-80
2021/03/18 03:21:16;;;;;;;11.10;9.98;;;;;;;0.55;66.81;100726.88;122964;1109;104316;-80
2021/03/18 03:23:45;;;;;;;14.00;11.50;;;;;;;0.51;67.46;100717.19;123251;1109;104447;-82
2021/03/18 03:26:26;;;;;;;13.38;11.12;;;;;;;0.55;68.00;100729.50;123124;1109;104507;-81
2021/03/18 03:28:54;;;;;;;13.88;10.82;;;;;;;0.59;67.56;100715.59;123049;1105;104412;-81
2021/03/18 03:31:21;;;;;;;13.27;10.43;;;;;;;0.64;67.80;100718.28;123248;1105;104444;-77
2021/03/18 03:34:01;;;;;;;11.90;10.68;;;;;;;0.65;68.20;100715.72;123342;1106;105141;-79
2021/03/18 03:36:45;;;;;;;13.20;10.55;;;;;;;0.60;68.13;100713.84;123337;1105;104832;-79
2021/03/18 03:39:26;;;;;;;12.05;10.08;;;;;;;0.64;68.06;100708.70;123237;1105;105311;-80
2021/03/18 03:42:11;;;;;;;12.63;10.20;;;;;;;0.63;67.90;100708.69;123071;1105;104210;-80
2021/03/18 03:44:40;;;;;;;11.63;10.15;;;;;;;0.66;68.84;100712.22;123149;1105;104310;-80
2021/03/18 03:47:07;;;;;;;14.60;11.07;;;;;;;0.68;68.97;100712.28;123222;1105;104402;-79
2021/03/18 03:49:36;;;;;;;14.47;10.43;;;;;;;0.67;68.69;100710.51;123246;1105;104242;-80
2021/03/18 03:52:24;;;;;;;13.20;10.18;;;;;;;0.70;69.41;100710.55;123367;1105;104303;-85
2021/03/18 03:55:07;;;;;;;13.00;11.73;;;;;;;0.68;69.45;100708.76;123391;1105;104412;-82
2021/03/18 03:57:39;;;;;;;11.70;9.85;;;;;;;0.74;69.14;100716.75;123417;1106;104136;-79
2021/03/18 04:00:08;;;;;;;14.87;9.70;;;;;;;0.69;70.10;100721.02;123294;1105;104325;-79
2021/03/18 04:02:55;;;;;;;14.35;11.85;;;;;;;0.75;69.70;100722.02;123385;1105;104743;-83
2021/03/18 04:05:22;;;;;;;11.67;9.07;;;;;;;0.78;69.80;100716.82;123271;1105;104381;-79
2021/03/18 04:07:49;;;;;;;12.13;10.83;;;;;;;0.80;70.01;100717.75;122867;1105;104319;-80
2021/03/18 04:10:16;;;;;;;12.00;9.67;;;;;;;0.72;70.38;100721.97;122754;1105;104296;-79
2021/03/18 04:12:45;;;;;;;13.50;12.10;;;;;;;0.73;70.08;100714.97;122784;1106;104283;-80
2021/03/18 04:15:17;;;;;;;13.10;10.87;;;;;;;0.77;69.93;100709.83;122898;1105;104384;-81
2021/03/18 04:17:48;;;;;;;13.37;11.00;;;;;;;0.79;70.32;100705.48;122804;1105;104226;-80
2021/03/18 04:20:16;;;;;;;13.08;10.75;;;;;;;0.83;70.34;100709.92;122947;1105;104351;-81
2021/03/18 04:22:48;;;;;;;11.97;10.08;;;;;;;0.86;70.80;100714.34;122922;1106;104300;-79
2021/03/18 04:25:16;;;;;;;13.78;11.08;;;;;;;0.89;70.49;100710.90;122786;1104;104360;-80
2021/03/18 04:27:44;;;;;;;13.98;11.63;;;;;;;0.91;69.60;100703.95;123117;1105;104335;-79
2021/03/18 04:30:14;;;;;;;13.78;10.88;;;;;;;0.95;70.48;100713.64;123453;1105;104341;-79
2021/03/18 04:32:43;;;;;;;16.45;12.30;;;;;;;0.93;69.97;100712.72;123408;1104;104271;-79
2021/03/18 04:35:11;;;;;;;12.80;11.47;;;;;;;0.95;70.72;100716.27;123384;1105;105059;-83
2021/03/18 04:37:38;;;;;;;12.70;11.40;;;;;;;0.91;70.43;100710.07;123454;1105;104300;-83
2021/03/18 04:40:09;;;;;;;15.30;12.00;;;;;;;0.93;70.53;100705.72;123345;1105;104309;-81
2021/03/18 04:42:36;;;;;;;21.57;14.43;;;;;;;0.92;70.13;100713.56;123335;1105;104249;-80
2021/03/18 04:45:05;;;;;;;13.77;12.00;;;;;;;0.93;69.99;100710.09;123131;1105;104399;-78
2021/03/18 04:47:32;;;;;;;15.97;12.77;;;;;;;1.00;70.21;100714.61;123028;1105;104364;-79
2021/03/18 04:50:01;;;;;;;18.03;13.90;;;;;;;0.99;70.63;100712.84;122887;1105;104342;-81
2021/03/18 04:52:28;;;;;;;17.50;13.23;;;;;;;0.93;70.72;100720.59;122807;1105;104357;-79
2021/03/18 04:54:54;;;;;;;15.97;14.33;;;;;;;0.91;71.42;100719.69;122745;1105;104350;-80
2021/03/18 04:57:23;;;;;;;16.30;12.77;;;;;;;0.93;71.04;100715.34;122752;1105;104270;-80
2021/03/18 04:59:50;;;;;;;15.97;13.07;;;;;;;0.93;71.23;100716.21;122819;1105;104226;-80
2021/03/18 05:02:18;;;;;;;13.65;12.28;;;;;;;0.96;70.74;100716.29;122902;1105;104316;-81
2021/03/18 05:05:00;;;;;;;14.85;13.35;;;;;;;0.98;70.78;100716.31;123493;1105;104302;-79
2021/03/18 05:07:35;;;;;;;15.78;11.43;;;;;;;0.96;71.63;100713.66;124119;1105;104345;-82
2021/03/18 05:10:05;;;;;;;14.87;13.30;;;;;;;0.97;71.06;100714.53;124221;1105;104370;-80
2021/03/18 05:12:33;;;;;;;12.17;11.07;;;;;;;1.00;70.67;100717.23;124148;1104;104344;-78
2021/03/18 05:15:15;;;;;;;13.28;11.83;;;;;;;1.00;71.08;100722.48;124146;1105;104306;-80
2021/03/18 05:17:43;;;;;;;17.15;12.10;;;;;;;0.97;71.64;100720.69;123993;1105;104325;-80
2021/03/18 05:20:24;;;;;;;12.80;10.97;;;;;;;1.02;71.56;100714.63;123366;1105;104357;-83
2021/03/18 05:22:54;;;;;;;11.50;10.40;;;;;;;0.98;72.04;100708.44;123353;1105;104370;-79
2021/03/18 05:25:25;;;;;;;13.05;9.83;;;;;;;0.94;71.97;100712.73;123490;1105;104232;-79
2021/03/18 05:27:51;;;;;;;13.72;12.43;;;;;;;1.01;71.69;100708.48;123439;1105;104300;-79
2021/03/18 05:30:21;;;;;;;11.95;10.60;;;;;;;1.00;71.26;100712.86;123505;1105;104450;-79
2021/03/18 05:32:47;;;;;;;15.38;12.63;;;;;;;1.06;71.18;100708.58;123523;1105;104261;-79
2021/03/18 05:35:33;;;;;;;15.20;12.10;;;;;;;1.15;71.02;100713.98;123455;1105;104277;-80
2021/03/18 05:38:00;;;;;;;14.80;11.20;;;;;;;1.14;72.07;100715.71;123433;1106;104313;-79
2021/03/18 05:40:27;;;;;;;11.78;10.78;;;;;;;1.07;72.00;100719.09;123467;1105;104255;-80
2021/03/18 05:42:53;;;;;;;17.77;12.63;;;;;;;1.04;71.93;100719.05;123206;1105;104229;-79
2021/03/18 05:45:20;;;;;;;13.10;11.63;;;;;;;1.14;71.35;100717.47;123341;1105;105777;-81
2021/03/18 05:47:48;;;;;;;13.10;11.78;;;;;;;1.15;70.81;100725.36;123504;1105;104316;-82
2021/03/18 05:50:18;;;;;;;15.45;12.73;;;;;;;1.11;71.89;100720.05;123565;1105;104323;-82
2021/03/18 05:52:46;;;;;;;18.35;12.95;;;;;;;1.13;71.58;100727.08;123501;1106;104255;-83
2021/03/18 05:55:14;;;;;;;13.25;12.03;;;;;;;1.21;71.16;100731.56;123421;1106;104345;-79
2021/03/18 05:57:42;;;;;;;15.40;12.65;;;;;;;1.21;72.15;100719.32;123406;1105;104258;-78
2021/03/18 06:00:11;;;;;;;13.28;11.55;;;;;;;1.21;71.74;100731.56;123394;1106;104230;-82
2021/03/18 06:02:40;;;;;;;14.28;11.78;;;;;;;1.26;71.69;100725.53;123642;1105;104899;-79
2021/03/18 06:05:14;;;;;;;16.67;13.10;;;;;;;1.26;71.67;100727.28;123467;1105;104386;-80
2021/03/18 06:07:43;;;;;;;11.93;10.73;;;;;;;1.32;72.01;100724.78;123450;1105;104321;-81
2021/03/18 06:10:17;;;;;;;15.15;13.30;;;;;;;1.43;71.60;100732.83;123293;1105;104640;-80
2021/03/18 06:13:00;;;;;;;13.95;11.97;;;;;;;1.44;71.81;100737.19;123303;1105;104307;-82
2021/03/18 06:15:27;;;;;;;16.50;11.65;;;;;;;1.45;71.26;100737.24;123306;1105;104336;-80
2021/03/18 06:17:54;;;;;;;16.40;12.73;;;;;;;1.50;70.95;100726.80;123401;1106;104724;-79
2021/03/18 06:20:24;;;;;;;13.93;11.23;;;;;;;1.64;71.26;100734.88;123392;1105;104315;-80
2021/03/18 06:22:51;;;;;;;12.47;10.72;;;;;;;1.64;70.88;100730.53;123391;1105;104258;-79
2021/03/18 06:25:20;;;;;;;18.90;14.53;;;;;;;1.69;71.22;100737.59;123470;1105;104323;-80
2021/03/18 06:27:47;;;;;;;16.15;13.88;;;;;;;1.73;70.70;100735.02;123362;1105;104253;-79
2021/03/18 06:30:28;;;;;;;17.87;12.23;;;;;;;1.77;70.98;100743.84;123059;1107;104395;-80
2021/03/18 06:33:24;;;;;;;10.90;9.78;;;;;;;1.76;70.78;100745.59;122923;1109;104383;-80
2021/03/18 06:35:51;;;;;;;18.45;11.70;;;;;;;1.72;70.53;100751.66;123104;1109;104235;-80
2021/03/18 06:38:25;;;;;;;15.30;11.93;;;;;;;1.70;71.04;100747.25;123123;1109;104825;-82
2021/03/18 06:40:52;;;;;;;16.23;12.57;;;;;;;1.78;71.35;100749.11;123061;1109;104416;-79
2021/03/18 06:43:18;;;;;;;13.00;11.83;;;;;;;1.82;71.21;100743.04;123021;1109;104249;-80
2021/03/18 06:45:44;;;;;;;14.87;13.37;;;;;;;1.86;69.98;100745.73;123039;1108;104453;-81
2021/03/18 06:48:15;;;;;;;14.93;11.93;;;;;;;1.88;70.54;100744.00;123111;1109;104216;-79
2021/03/18 06:50:44;;;;;;;12.60;11.30;;;;;;;1.98;69.82;100748.53;123188;1109;104505;-79
2021/03/18 06:53:30;;;;;;;14.83;11.30;;;;;;;2.06;69.96;100741.64;123018;1109;104293;-80
2021/03/18 06:56:33;;;;;;;15.43;12.90;;;;;;;2.21;69.89;100745.34;122756;1109;104341;-79
2021/03/18 06:59:00;;;;;;;17.40;13.57;;;;;;;2.24;69.16;100730.51;122792;1109;105227;-80
2021/03/18 07:01:31;;;;;;;12.07;10.70;;;;;;;2.23;68.61;100733.98;122737;1109;104768;-83
2021/03/18 07:04:06;;;;;;;10.32;9.33;;;;;;;2.22;68.70;100736.60;122866;1109;104325;-81
2021/03/18 07:06:51;;;;;;;12.80;9.48;;;;;;;2.25;68.85;100731.38;122640;1109;104405;-82
2021/03/18 07:09:28;;;;;;;;;;;;;;;;;;;;;
2021/03/18 07:12:07;;;;;;;8.73;7.87;;;;;;;2.29;68.22;100728.83;122961;1109;104392;-82
2021/03/18 07:14:50;;;;;;;10.65;8.80;;;;;;;2.34;67.79;100726.24;122425;1110;104405;-81
2021/03/18 07:17:31;;;;;;;11.43;9.90;;;;;;;2.39;68.23;100724.55;122280;1112;104370;-81
2021/03/18 07:20:12;;;;;;;9.53;8.63;;;;;;;2.41;66.59;100733.33;122424;1111;104335;-80
2021/03/18 07:22:46;;;;;;;8.80;7.17;;;;;;;2.37;65.40;100728.03;122465;1112;104312;-81
2021/03/18 07:25:16;;;;;;;8.93;6.70;;;;;;;2.43;64.05;100742.13;122362;1112;104450;-83
2021/03/18 07:27:57;;;;;;;7.40;6.10;;;;;;;2.37;63.95;100726.27;122598;1112;104437;-84
2021/03/18 07:30:32;;;;;;;7.53;6.25;;;;;;;2.51;64.82;100735.21;122224;1112;104275;-79
2021/03/18 07:33:00;;;;;;;11.20;8.25;;;;;;;2.58;63.28;100727.41;122482;1112;104345;-80
2021/03/18 07:35:28;;;;;;;9.58;7.50;;;;;;;2.49;63.43;100730.80;122547;1108;104405;-88
2021/03/18 07:37:56;;;;;;;9.57;7.27;;;;;;;2.50;63.75;100733.44;122461;1109;104773;-81
2021/03/18 07:40:24;;;;;;;9.00;6.65;;;;;;;2.55;62.72;100725.63;122668;1109;104467;-85
2021/03/18 07:42:51;;;;;;;8.65;7.10;;;;;;;2.56;61.50;100723.87;122541;1109;104527;-80
2021/03/18 07:45:20;;;;;;;9.40;6.85;;;;;;;2.62;61.82;100726.58;122595;1108;104400;-81
2021/03/18 07:47:49;;;;;;;10.80;7.13;;;;;;;2.57;61.28;100730.89;122948;1109;104409;-82
2021/03/18 07:50:26;;;;;;;10.00;7.65;;;;;;;2.60;61.33;100723.94;122906;1109;104428;-81
2021/03/18 07:52:53;;;;;;;6.10;5.50;;;;;;;2.54;59.35;100721.22;123203;1105;104696;-84
2021/03/18 07:55:21;;;;;;;5.05;4.62;;;;;;;2.54;59.81;100717.72;123262;1105;104328;-82
2021/03/18 07:57:50;;;;;;;10.77;7.07;;;;;;;2.58;59.70;100722.15;123169;1105;104255;-85
2021/03/18 08:00:22;;;;;;;12.87;5.90;;;;;;;2.57;58.10;100723.01;123201;1105;104255;-81
2021/03/18 08:02:49;;;;;;;6.57;4.80;;;;;;;2.57;57.18;100718.62;123196;1105;104379;-82
2021/03/18 08:05:36;;;;;;;10.97;6.40;;;;;;;2.64;58.57;100719.61;123302;1105;104169;-80
2021/03/18 08:08:03;;;;;;;7.43;4.93;;;;;;;2.78;58.18;100717.98;123179;1105;105185;-83
2021/03/18 08:10:49;;;;;;;7.00;6.35;;;;;;;2.91;57.78;100724.27;123231;1105;104357;-83
2021/03/18 08:13:35;;;;;;;5.08;4.58;;;;;;;2.78;56.40;100712.72;123028;1109;104338;-92
2021/03/18 08:16:01;;;;;;;8.13;5.60;;;;;;;2.81;56.90;100717.13;123536;1109;104317;-82
2021/03/18 08:18:33;;;;;;;8.13;6.47;;;;;;;2.94;58.00;100713.76;123256;1106;104249;-83
2021/03/18 08:21:02;;;;;;;7.17;6.43;;;;;;;3.03;56.33;100717.38;123369;1105;104348;-84
2021/03/18 08:23:29;;;;;;;5.70;4.25;;;;;;;3.03;55.35;100715.61;123269;1105;104864;-83
2021/03/18 08:26:11;;;;;;;6.97;4.80;;;;;;;3.06;56.11;100705.11;123149;1105;105194;-81
2021/03/18 08:28:54;;;;;;;5.65;4.10;;;;;;;3.12;54.95;100713.07;123542;1105;104734;-84
2021/03/18 08:31:24;;;;;;;6.67;4.13;;;;;;;3.29;54.36;100715.86;123111;1105;104377;-81
2021/03/18 08:33:53;;;;;;;6.90;4.27;;;;;;;3.39;54.30;100711.55;123249;1105;104368;-84
2021/03/18 08:36:36;;;;;;;7.55;5.83;;;;;;;3.39;53.65;100710.67;123173;1105;104225;-81
2021/03/18 08:39:13;;;;;;;6.70;5.95;;;;;;;3.42;53.75;100703.66;123321;1105;104226;-84
2021/03/18 08:41:44;;;;;;;5.05;4.50;;;;;;;3.37;53.43;100710.63;123207;1105;104309;-84
2021/03/18 08:44:23;;;;;;;10.75;7.85;;;;;;;3.32;53.68;100712.38;123412;1105;104342;-83
2021/03/18 08:46:58;;;;;;;6.27;4.87;;;;;;;3.25;52.37;100710.54;123612;1105;104319;-84
2021/03/18 08:49:28;;;;;;;5.40;4.47;;;;;;;3.26;53.61;100701.78;123159;1105;104835;-83
2021/03/18 08:52:00;;;;;;;5.80;4.70;;;;;;;3.29;52.71;100702.70;123409;1105;104983;-82
2021/03/18 08:54:36;;;;;;;5.87;5.28;;;;;;;3.38;53.40;100706.27;123364;1106;104977;-83
2021/03/18 08:57:23;;;;;;;9.30;5.45;;;;;;;3.53;53.20;100710.77;123396;1105;104280;-85
2021/03/18 08:59:59;;;;;;;6.20;4.85;;;;;;;3.63;53.14;100700.30;123460;1105;105014;-87
2021/03/18 09:02:30;;;;;;;5.93;5.23;;;;;;;3.63;54.00;100699.44;123350;1105;104350;-82
2021/03/18 09:05:18;;;;;;;7.12;4.87;;;;;;;3.61;52.92;100698.53;123215;1106;104239;-82
2021/03/18 09:07:55;;;;;;;6.33;4.63;;;;;;;3.53;53.10;100706.37;123125;1105;104201;-83
2021/03/18 09:10:43;;;;;;;8.40;5.05;;;;;;;3.44;52.89;100709.83;123889;1105;104672;-82
2021/03/18 09:13:17;;;;;;;5.25;4.28;;;;;;;3.43;54.12;100701.92;123545;1105;104492;-82
2021/03/18 09:15:59;;;;;;;5.13;4.63;;;;;;;3.52;53.51;100704.63;122886;1109;105979;-84
2021/03/18 09:18:35;;;;;;;5.50;4.87;;;;;;;3.57;52.95;100702.88;123126;1109;104630;-89
2021/03/18 09:21:12;;;;;;;7.15;5.30;;;;;;;3.59;52.81;100698.52;122919;1109;104725;-84
2021/03/18 09:23:44;;;;;;;8.43;5.87;;;;;;;3.61;52.67;100699.43;122946;1108;104219;-83
2021/03/18 09:26:13;;;;;;;12.33;5.80;;;;;;;3.52;52.65;100702.00;123033;1109;105088;-83
2021/03/18 09:28:43;;;;;;;5.07;4.50;;;;;;;3.48;52.94;100708.11;122839;1109;104409;-83
2021/03/18 09:31:12;;;;;;;7.47;6.53;;;;;;;3.48;53.68;100701.09;123022;1109;104335;-82
2021/03/18 09:33:41;;;;;;;5.22;4.72;;;;;;;3.50;53.72;100707.22;123278;1108;104401;-83
2021/03/18 09:36:14;;;;;;;9.70;6.00;;;;;;;3.36;52.90;100701.00;123415;1109;104986;-82
2021/03/18 09:38:58;;;;;;;8.80;6.83;;;;;;;3.33;54.61;100700.95;123196;1106;104416;-85
2021/03/18 09:41:29;;;;;;;7.40;5.50;;;;;;;3.33;54.57;100708.84;123247;1106;104386;-81
2021/03/18 09:44:11;;;;;;;8.37;7.03;;;;;;;3.32;54.09;100700.08;123250;1106;104306;-82
2021/03/18 09:46:40;;;;;;;8.40;6.70;;;;;;;3.33;54.67;100703.58;123216;1109;105135;-83
2021/03/18 09:49:07;;;;;;;11.33;6.47;;;;;;;3.32;54.11;100705.34;122947;1109;104395;-81
2021/03/18 09:51:43;;;;;;;7.47;6.50;;;;;;;3.28;53.89;100702.66;122877;1105;104510;-83
2021/03/18 09:54:12;;;;;;;8.50;7.60;;;;;;;3.27;54.13;100699.16;123398;1105;104294;-83
2021/03/18 09:56:40;;;;;;;6.40;5.90;;;;;;;3.30;53.97;100703.56;123298;1105;104249;-81
2021/03/18 09:59:09;;;;;;;6.33;5.30;;;;;;;3.42;55.03;100710.69;122947;1105;104354;-82
2021/03/18 10:01:36;;;;;;;6.53;5.93;;;;;;;3.53;54.63;100687.06;123462;1105;104284;-82
2021/03/18 10:04:05;;;;;;;5.95;5.03;;;;;;;3.57;54.00;100683.58;123208;1105;104249;-81
2021/03/18 10:06:34;;;;;;;4.53;4.22;;;;;;;3.59;53.61;100685.36;123249;1106;104387;-83
2021/03/18 10:09:17;;;;;;;4.30;3.90;;;;;;;3.65;54.15;100688.05;123104;1105;105236;-81
2021/03/18 10:12:05;;;;;;;8.60;4.67;;;;;;;3.65;53.46;100677.51;123128;1105;104313;-84
2021/03/18 10:14:31;;;;;;;9.33;5.73;;;;;;;3.61;52.62;100680.09;123167;1105;104235;-85
2021/03/18 10:17:18;;;;;;;7.00;6.30;;;;;;;3.58;53.38;100685.34;123289;1105;104370;-82
2021/03/18 10:19:58;;;;;;;5.47;4.97;;;;;;;3.60;52.95;100684.49;123355;1105;104338;-82
2021/03/18 10:22:31;;;;;;;6.07;5.43;;;;;;;3.62;51.95;100679.23;123282;1105;104364;-83
2021/03/18 10:25:11;;;;;;;8.97;6.87;;;;;;;3.60;52.67;100684.49;123550;1105;104384;-89
2021/03/18 10:27:46;;;;;;;4.67;4.27;;;;;;;3.62;52.41;100676.59;123175;1105;104446;-82
2021/03/18 10:30:19;;;;;;;6.13;5.60;;;;;;;3.65;52.12;100671.34;123211;1105;104312;-81
2021/03/18 10:33:05;;;;;;;7.20;5.20;;;;;;;3.67;53.19;100665.21;123334;1105;104390;-82
2021/03/18 10:35:36;;;;;;;4.25;3.87;;;;;;;3.62;52.54;100664.30;123588;1105;104351;-80
2021/03/18 10:38:04;;;;;;;7.50;5.42;;;;;;;3.71;52.90;100660.86;123528;1105;104348;-82
2021/03/18 10:40:41;;;;;;;5.58;5.15;;;;;;;3.79;53.33;100660.91;123274;1105;104313;-84
2021/03/18 10:43:30;;;;;;;7.70;5.37;;;;;;;3.90;53.42;100655.69;123140;1105;104226;-82
2021/03/18 10:46:08;;;;;;;5.60;5.10;;;;;;;4.00;51.45;100655.73;123325;1105;104370;-81
2021/03/18 10:48:37;;;;;;;7.37;6.12;;;;;;;3.99;51.58;100661.88;123573;1105;104306;-83
2021/03/18 10:51:06;;;;;;;7.20;6.50;;;;;;;3.95;51.54;100654.83;123204;1105;104486;-81
2021/03/18 10:53:37;;;;;;;7.90;6.43;;;;;;;3.97;51.80;100653.09;123174;1105;104345;-80
2021/03/18 10:56:14;;;;;;;5.28;3.95;;;;;;;3.89;50.96;100659.19;123163;1105;104373;-81
2021/03/18 10:58:41;;;;;;;5.08;4.05;;;;;;;3.80;50.85;100665.31;123234;1105;104332;-80
2021/03/18 11:01:10;;;;;;;5.65;4.55;;;;;;;3.79;51.42;100650.37;123279;1105;104367;-85
2021/03/18 11:03:39;;;;;;;4.05;3.70;;;;;;;3.74;50.27;100659.99;123363;1105;104229;-84
2021/03/18 11:06:16;;;;;;;4.07;3.67;;;;;;;3.74;51.16;100654.73;123313;1105;104296;-82
2021/03/18 11:08:46;;;;;;;5.43;4.40;;;;;;;3.78;50.78;100660.00;123424;1105;105126;-84
2021/03/18 11:11:16;;;;;;;8.65;4.33;;;;;;;3.75;50.54;100652.09;123414;1105;104302;-83
2021/03/18 11:13:44;;;;;;;5.03;4.53;;;;;;;3.82;50.99;100656.52;123292;1105;105048;-82
2021/03/18 11:16:23;;;;;;;5.33;4.40;;;;;;;3.90;51.17;100651.28;123154;1105;104341;-82
2021/03/18 11:18:56;;;;;;;5.03;4.53;;;;;;;3.87;50.70;100650.41;123417;1105;104287;-84
2021/03/18 11:21:43;;;;;;;4.77;4.47;;;;;;;3.92;51.68;100644.29;123301;1105;104320;-79
2021/03/18 11:24:16;;;;;;;5.10;4.70;;;;;;;4.05;51.58;100645.20;123351;1105;104252;-82
2021/03/18 11:26:50;;;;;;;6.12;5.45;;;;;;;4.11;51.89;100639.97;123323;1105;104345;-81
2021/03/18 11:29:18;;;;;;;5.22;4.72;;;;;;;4.14;51.43;100634.70;123320;1105;104641;-84
2021/03/18 11:31:51;;;;;;;6.40;5.80;;;;;;;4.18;52.02;100644.41;123423;1105;104255;-80
2021/03/18 11:34:24;;;;;;;6.53;5.20;;;;;;;4.17;52.54;100641.73;123379;1105;104274;-80
2021/03/18 11:36:58;;;;;;;6.67;6.13;;;;;;;4.13;52.56;100638.23;122933;1105;104363;-81